EDV5309 KCHA-KATL
Flight info
| Callsign | EDV5309 |
|---|---|
| Flight time | 0h 25m |
| Altitude | 16000 |
| Route | LEMKE CHPPR1 |
| Aircraft | CRJ9/M-SDFGIRWY/S |
Departure
| Time | 2026-05-06 13:54 |
|---|---|
| Airport | Chattanooga Metropolitan Airport (Lovell Field) (KCHA) |
Arrival
| Time | 2026-05-06 14:19 |
|---|---|
| Airport | Hartsfield Jackson Atlanta International Airport (KATL) |
| Time | Latitude | Longitude | Altitude | Speed | Heading |
|---|---|---|---|---|---|
| 2026-05-06 13:46 | 35.03734 | -85.19835 | 679 ft | 0 kts | 67° |
| 2026-05-06 13:48 | 35.03733 | -85.19838 | 679 ft | 1 kts | 67° |
| 2026-05-06 13:48 | 35.03729 | -85.19851 | 679 ft | 2 kts | 68° |
| 2026-05-06 13:48 | 35.03722 | -85.19871 | 676 ft | 3 kts | 66° |
| 2026-05-06 13:49 | 35.03715 | -85.19888 | 679 ft | 2 kts | 54° |
| 2026-05-06 13:49 | 35.03707 | -85.19898 | 677 ft | 2 kts | 35° |
| 2026-05-06 13:49 | 35.03698 | -85.19904 | 679 ft | 2 kts | 23° |
| 2026-05-06 13:49 | 35.03693 | -85.19906 | 679 ft | 0 kts | 21° |
| 2026-05-06 13:51 | 35.03697 | -85.19905 | 679 ft | 3 kts | 14° |
| 2026-05-06 13:51 | 35.03748 | -85.19915 | 679 ft | 9 kts | 347° |
| 2026-05-06 13:51 | 35.03834 | -85.19916 | 679 ft | 15 kts | 15° |
| 2026-05-06 13:52 | 35.03944 | -85.19878 | 679 ft | 17 kts | 16° |
| 2026-05-06 13:52 | 35.04064 | -85.19881 | 680 ft | 19 kts | 331° |
| 2026-05-06 13:52 | 35.04174 | -85.19964 | 681 ft | 18 kts | 315° |
| 2026-05-06 13:52 | 35.04158 | -85.20064 | 681 ft | 10 kts | 192° |
| 2026-05-06 13:53 | 35.04068 | -85.20096 | 681 ft | 24 kts | 197° |
| 2026-05-06 13:53 | 35.03685 | -85.20235 | 677 ft | 93 kts | 196° |
| 2026-05-06 13:53 | 35.02862 | -85.20535 | 679 ft | 151 kts | 196° |
| 2026-05-06 13:53 | 35.01743 | -85.20938 | 1067 ft | 174 kts | 195° |
| 2026-05-06 13:54 | 35.00601 | -85.21337 | 2000 ft | 171 kts | 195° |
| 2026-05-06 13:54 | 34.99296 | -85.21315 | 2406 ft | 213 kts | 175° |
| 2026-05-06 13:54 | 34.97697 | -85.20891 | 2798 ft | 244 kts | 176° |
| 2026-05-06 13:54 | 34.96039 | -85.20638 | 3706 ft | 246 kts | 184° |
| 2026-05-06 13:55 | 34.94296 | -85.20565 | 4451 ft | 255 kts | 185° |
| 2026-05-06 13:55 | 34.92498 | -85.20553 | 5305 ft | 259 kts | 187° |
| 2026-05-06 13:55 | 34.90662 | -85.20601 | 6092 ft | 266 kts | 188° |
| 2026-05-06 13:55 | 34.88809 | -85.20587 | 7053 ft | 268 kts | 185° |
| 2026-05-06 13:56 | 34.86934 | -85.20461 | 7826 ft | 272 kts | 184° |
| 2026-05-06 13:56 | 34.85058 | -85.20293 | 8471 ft | 276 kts | 184° |
| 2026-05-06 13:56 | 34.83141 | -85.20127 | 9175 ft | 277 kts | 185° |
| 2026-05-06 13:56 | 34.81208 | -85.19984 | 9858 ft | 280 kts | 186° |
| 2026-05-06 13:57 | 34.79259 | -85.19850 | 10488 ft | 281 kts | 186° |
| 2026-05-06 13:57 | 34.77239 | -85.19731 | 10629 ft | 303 kts | 186° |
| 2026-05-06 13:57 | 34.75021 | -85.19595 | 10736 ft | 325 kts | 186° |
| 2026-05-06 13:57 | 34.72730 | -85.19444 | 10900 ft | 343 kts | 185° |
| 2026-05-06 13:58 | 34.70294 | -85.19278 | 11082 ft | 359 kts | 185° |
| 2026-05-06 13:58 | 34.67756 | -85.19103 | 11354 ft | 370 kts | 184° |
| 2026-05-06 13:58 | 34.65176 | -85.18926 | 11868 ft | 374 kts | 185° |
| 2026-05-06 13:58 | 34.62586 | -85.18745 | 12471 ft | 373 kts | 185° |
| 2026-05-06 13:59 | 34.59984 | -85.18563 | 13014 ft | 375 kts | 185° |
| 2026-05-06 13:59 | 34.57368 | -85.18390 | 13528 ft | 379 kts | 185° |
| 2026-05-06 13:59 | 34.54708 | -85.18214 | 13805 ft | 388 kts | 185° |
| 2026-05-06 13:59 | 34.51996 | -85.18023 | 13891 ft | 390 kts | 185° |
| 2026-05-06 14:00 | 34.49289 | -85.17849 | 13943 ft | 390 kts | 185° |
| 2026-05-06 14:00 | 34.46616 | -85.17664 | 13944 ft | 390 kts | 185° |
| 2026-05-06 14:00 | 34.43904 | -85.17485 | 13986 ft | 391 kts | 185° |
| 2026-05-06 14:00 | 34.41186 | -85.17301 | 14001 ft | 392 kts | 185° |
| 2026-05-06 14:01 | 34.38459 | -85.17109 | 14011 ft | 393 kts | 185° |
| 2026-05-06 14:01 | 34.35737 | -85.16439 | 13987 ft | 413 kts | 165° |
| 2026-05-06 14:01 | 34.33200 | -85.14706 | 14014 ft | 426 kts | 153° |
| 2026-05-06 14:01 | 34.30839 | -85.12495 | 14012 ft | 431 kts | 148° |
| 2026-05-06 14:02 | 34.28535 | -85.10171 | 14019 ft | 432 kts | 147° |
| 2026-05-06 14:02 | 34.26212 | -85.07841 | 13775 ft | 433 kts | 148° |
| 2026-05-06 14:02 | 34.23890 | -85.05635 | 13557 ft | 428 kts | 150° |
| 2026-05-06 14:02 | 34.21527 | -85.03482 | 13354 ft | 422 kts | 150° |
| 2026-05-06 14:03 | 34.19226 | -85.01341 | 13180 ft | 412 kts | 149° |
| 2026-05-06 14:03 | 34.16976 | -84.99253 | 13076 ft | 409 kts | 150° |
| 2026-05-06 14:03 | 34.14704 | -84.97150 | 13037 ft | 413 kts | 150° |
| 2026-05-06 14:03 | 34.12436 | -84.95009 | 13030 ft | 415 kts | 149° |
| 2026-05-06 14:04 | 34.10161 | -84.92860 | 12997 ft | 415 kts | 148° |
| 2026-05-06 14:04 | 34.07893 | -84.90705 | 13012 ft | 415 kts | 148° |
| 2026-05-06 14:04 | 34.05625 | -84.88559 | 13025 ft | 415 kts | 148° |
| 2026-05-06 14:04 | 34.03352 | -84.86413 | 13041 ft | 415 kts | 149° |
| 2026-05-06 14:05 | 34.01080 | -84.84261 | 13037 ft | 416 kts | 148° |
| 2026-05-06 14:05 | 33.98796 | -84.82107 | 12855 ft | 418 kts | 148° |
| 2026-05-06 14:05 | 33.96527 | -84.79932 | 12495 ft | 416 kts | 147° |
| 2026-05-06 14:05 | 33.94258 | -84.77800 | 12144 ft | 410 kts | 149° |
| 2026-05-06 14:06 | 33.91987 | -84.75748 | 11773 ft | 406 kts | 149° |
| 2026-05-06 14:06 | 33.89751 | -84.73690 | 11409 ft | 404 kts | 148° |
| 2026-05-06 14:06 | 33.87567 | -84.71598 | 11204 ft | 398 kts | 147° |
| 2026-05-06 14:06 | 33.85435 | -84.69530 | 11070 ft | 389 kts | 148° |
| 2026-05-06 14:07 | 33.83341 | -84.67543 | 11035 ft | 379 kts | 148° |
| 2026-05-06 14:07 | 33.81286 | -84.65616 | 11025 ft | 371 kts | 148° |
| 2026-05-06 14:07 | 33.79272 | -84.63732 | 11030 ft | 364 kts | 148° |
| 2026-05-06 14:07 | 33.77289 | -84.61875 | 11043 ft | 359 kts | 148° |
| 2026-05-06 14:08 | 33.75332 | -84.60031 | 11045 ft | 358 kts | 148° |
| 2026-05-06 14:08 | 33.73682 | -84.57750 | 11006 ft | 372 kts | 122° |
| 2026-05-06 14:08 | 33.72906 | -84.54768 | 10708 ft | 379 kts | 98° |
| 2026-05-06 14:08 | 33.72933 | -84.51617 | 10293 ft | 375 kts | 87° |
| 2026-05-06 14:09 | 33.73114 | -84.48515 | 9915 ft | 370 kts | 88° |
| 2026-05-06 14:09 | 33.73262 | -84.45451 | 9441 ft | 366 kts | 89° |
| 2026-05-06 14:09 | 33.73341 | -84.42409 | 8959 ft | 361 kts | 90° |
| 2026-05-06 14:09 | 33.73363 | -84.39415 | 8514 ft | 356 kts | 91° |
| 2026-05-06 14:10 | 33.73346 | -84.36492 | 8026 ft | 352 kts | 92° |
| 2026-05-06 14:10 | 33.73328 | -84.33569 | 7550 ft | 348 kts | 91° |
| 2026-05-06 14:10 | 33.73321 | -84.30702 | 7064 ft | 338 kts | 91° |
| 2026-05-06 14:10 | 33.73328 | -84.27929 | 6574 ft | 326 kts | 90° |
| 2026-05-06 14:11 | 33.73335 | -84.25257 | 6080 ft | 315 kts | 90° |
| 2026-05-06 14:11 | 33.73340 | -84.22658 | 5565 ft | 307 kts | 90° |
| 2026-05-06 14:11 | 33.73344 | -84.20065 | 5105 ft | 306 kts | 90° |
| 2026-05-06 14:11 | 33.73345 | -84.17517 | 4630 ft | 305 kts | 91° |
| 2026-05-06 14:12 | 33.73270 | -84.15031 | 4258 ft | 298 kts | 103° |
| 2026-05-06 14:12 | 33.72403 | -84.12885 | 4099 ft | 284 kts | 137° |
| 2026-05-06 14:12 | 33.70785 | -84.11648 | 4051 ft | 274 kts | 169° |
| 2026-05-06 14:12 | 33.68923 | -84.11222 | 4052 ft | 273 kts | 176° |
| 2026-05-06 14:13 | 33.67064 | -84.11090 | 4016 ft | 256 kts | 196° |
| 2026-05-06 14:13 | 33.65617 | -84.12018 | 4016 ft | 226 kts | 233° |
| 2026-05-06 14:13 | 33.65035 | -84.13645 | 4033 ft | 208 kts | 268° |
| 2026-05-06 14:13 | 33.65337 | -84.15316 | 4039 ft | 207 kts | 290° |
| 2026-05-06 14:14 | 33.65758 | -84.16954 | 4078 ft | 202 kts | 274° |
| 2026-05-06 14:14 | 33.65659 | -84.18598 | 4122 ft | 200 kts | 259° |
| 2026-05-06 14:14 | 33.65383 | -84.20268 | 4071 ft | 206 kts | 259° |
| 2026-05-06 14:14 | 33.65224 | -84.21945 | 4010 ft | 205 kts | 268° |
| 2026-05-06 14:15 | 33.65271 | -84.23642 | 3847 ft | 202 kts | 270° |
| 2026-05-06 14:15 | 33.65248 | -84.25342 | 3462 ft | 207 kts | 266° |
| 2026-05-06 14:15 | 33.65171 | -84.27082 | 3073 ft | 208 kts | 264° |
| 2026-05-06 14:15 | 33.65040 | -84.28795 | 2873 ft | 200 kts | 264° |
| 2026-05-06 14:16 | 33.64988 | -84.30433 | 2655 ft | 195 kts | 268° |
| 2026-05-06 14:16 | 33.65024 | -84.32023 | 2472 ft | 181 kts | 268° |
| 2026-05-06 14:16 | 33.65026 | -84.33423 | 2442 ft | 156 kts | 264° |
| 2026-05-06 14:16 | 33.64983 | -84.34648 | 2295 ft | 131 kts | 264° |
| 2026-05-06 14:17 | 33.64971 | -84.35708 | 2051 ft | 127 kts | 264° |
| 2026-05-06 14:17 | 33.64965 | -84.36767 | 1789 ft | 131 kts | 264° |
| 2026-05-06 14:17 | 33.64956 | -84.37910 | 1614 ft | 139 kts | 265° |
| 2026-05-06 14:17 | 33.64955 | -84.39083 | 1407 ft | 139 kts | 268° |
| 2026-05-06 14:18 | 33.64951 | -84.40253 | 1240 ft | 140 kts | 266° |
| 2026-05-06 14:18 | 33.64955 | -84.41395 | 1045 ft | 132 kts | 265° |
| 2026-05-06 14:18 | 33.64952 | -84.42294 | 1034 ft | 85 kts | 270° |
| 2026-05-06 14:18 | 33.64953 | -84.42854 | 1033 ft | 51 kts | 270° |
| 2026-05-06 14:19 | 33.64911 | -84.43226 | 1034 ft | 27 kts | 244° |
| 2026-05-06 14:19 | 33.64807 | -84.43309 | 1034 ft | 18 kts | 137° |
| 2026-05-06 14:19 | 33.64789 | -84.43151 | 1034 ft | 24 kts | 90° |
| 2026-05-06 14:19 | 33.64789 | -84.42948 | 1034 ft | 19 kts | 96° |
| 2026-05-06 14:20 | 33.64681 | -84.42877 | 1035 ft | 22 kts | 166° |
| 2026-05-06 14:20 | 33.64521 | -84.42783 | 1034 ft | 24 kts | 158° |
| 2026-05-06 14:20 | 33.64397 | -84.42807 | 1034 ft | 19 kts | 186° |
| 2026-05-06 14:20 | 33.64256 | -84.42809 | 1034 ft | 15 kts | 180° |
| 2026-05-06 14:21 | 33.64211 | -84.42809 | 1034 ft | 5 kts | 180° |
| 2026-05-06 14:21 | 33.64192 | -84.42836 | 1034 ft | 6 kts | 269° |
| 2026-05-06 14:21 | 33.64191 | -84.42882 | 1034 ft | 3 kts | 269° |
| 2026-05-06 14:21 | 33.64191 | -84.42883 | 1034 ft | 0 kts | 269° |